EWG2WJ EDDS-EDDH
Flight info
| Callsign | EWG2WJ |
|---|---|
| Flight time | N/A |
| Altitude | 39000 |
| Route | OKIBA4H OKIBA N851 RIMKI Z99 LOHRE DCT MASEK DCT ELNAT P605 NOLGO NOLGO3P |
| Aircraft | A319/M-SDE3FGHIRWY/LB1 |
Departure
| Time | 2026-05-04 15:20 |
|---|---|
| Airport | Stuttgart Airport (EDDS) |
Arrival
| Time | N/A |
|---|---|
| Airport | Hamburg Helmut Schmidt Airport (EDDH) |
| Time | Latitude | Longitude | Altitude | Speed | Heading |
|---|---|---|---|---|---|
| 2026-05-04 14:37 | 48.68874 | 9.19288 | 1316 ft | 0 kts | 344° |
| 2026-05-04 15:07 | 48.68868 | 9.19290 | 1316 ft | 4 kts | 344° |
| 2026-05-04 15:07 | 48.68842 | 9.19301 | 1315 ft | 4 kts | 344° |
| 2026-05-04 15:08 | 48.68820 | 9.19311 | 1315 ft | 2 kts | 344° |
| 2026-05-04 15:08 | 48.68801 | 9.19325 | 1314 ft | 4 kts | 288° |
| 2026-05-04 15:08 | 48.68802 | 9.19358 | 1314 ft | 4 kts | 254° |
| 2026-05-04 15:08 | 48.68804 | 9.19367 | 1314 ft | 1 kts | 254° |
| 2026-05-04 15:15 | 48.68800 | 9.19344 | 1314 ft | 5 kts | 253° |
| 2026-05-04 15:15 | 48.68786 | 9.19273 | 1315 ft | 9 kts | 253° |
| 2026-05-04 15:15 | 48.68774 | 9.19213 | 1317 ft | 0 kts | 254° |
| 2026-05-04 15:16 | 48.68762 | 9.19166 | 1317 ft | 8 kts | 239° |
| 2026-05-04 15:16 | 48.68689 | 9.19157 | 1317 ft | 15 kts | 162° |
| 2026-05-04 15:16 | 48.68682 | 9.19456 | 1307 ft | 18 kts | 74° |
| 2026-05-04 15:17 | 48.68716 | 9.19629 | 1303 ft | 17 kts | 74° |
| 2026-05-04 15:17 | 48.68732 | 9.19719 | 1300 ft | 4 kts | 75° |
| 2026-05-04 15:17 | 48.68748 | 9.19798 | 1298 ft | 12 kts | 75° |
| 2026-05-04 15:18 | 48.68757 | 9.19931 | 1294 ft | 15 kts | 110° |
| 2026-05-04 15:18 | 48.68674 | 9.19990 | 1288 ft | 9 kts | 163° |
| 2026-05-04 15:18 | 48.68670 | 9.19992 | 1288 ft | 0 kts | 163° |
| 2026-05-04 15:19 | 48.68623 | 9.20016 | 1286 ft | 12 kts | 157° |
| 2026-05-04 15:19 | 48.68592 | 9.20112 | 1284 ft | 14 kts | 71° |
| 2026-05-04 15:19 | 48.68779 | 9.21092 | 1265 ft | 101 kts | 74° |
| 2026-05-04 15:20 | 48.69030 | 9.22392 | 1232 ft | 155 kts | 73° |
| 2026-05-04 15:20 | 48.69345 | 9.24060 | 1623 ft | 170 kts | 71° |
| 2026-05-04 15:20 | 48.69665 | 9.25809 | 2292 ft | 175 kts | 71° |
| 2026-05-04 15:20 | 48.70004 | 9.27652 | 2791 ft | 193 kts | 71° |
| 2026-05-04 15:21 | 48.70394 | 9.29723 | 3115 ft | 215 kts | 71° |
| 2026-05-04 15:21 | 48.70838 | 9.32026 | 3486 ft | 243 kts | 71° |
| 2026-05-04 15:21 | 48.71863 | 9.37332 | 4764 ft | 270 kts | 71° |
| 2026-05-04 15:22 | 48.72366 | 9.40057 | 4942 ft | 268 kts | 73° |
| 2026-05-04 15:22 | 48.72871 | 9.42784 | 4995 ft | 269 kts | 73° |
| 2026-05-04 15:22 | 48.74073 | 9.48109 | 5004 ft | 267 kts | 57° |
| 2026-05-04 15:23 | 48.75255 | 9.50254 | 5002 ft | 266 kts | 39° |
| 2026-05-04 15:23 | 48.76817 | 9.51731 | 5004 ft | 265 kts | 22° |
| 2026-05-04 15:23 | 48.78602 | 9.52400 | 5166 ft | 271 kts | 4° |
| 2026-05-04 15:23 | 48.80500 | 9.52283 | 6047 ft | 276 kts | 355° |
| 2026-05-04 15:24 | 48.84444 | 9.51852 | 7917 ft | 292 kts | 355° |
| 2026-05-04 15:24 | 48.88578 | 9.51406 | 9956 ft | 303 kts | 354° |
| 2026-05-04 15:25 | 48.90746 | 9.51168 | 10422 ft | 324 kts | 354° |
| 2026-05-04 15:25 | 48.93054 | 9.50915 | 10919 ft | 339 kts | 354° |
| 2026-05-04 15:25 | 48.95433 | 9.50383 | 11692 ft | 343 kts | 343° |
| 2026-05-04 15:26 | 48.99795 | 9.47577 | 13376 ft | 345 kts | 331° |
| 2026-05-04 15:26 | 49.01997 | 9.45950 | 13823 ft | 348 kts | 331° |
| 2026-05-04 15:26 | 49.06321 | 9.42775 | 13976 ft | 347 kts | 331° |
| 2026-05-04 15:27 | 49.08501 | 9.41178 | 13976 ft | 348 kts | 331° |
| 2026-05-04 15:27 | 49.12858 | 9.37985 | 13975 ft | 348 kts | 331° |
| 2026-05-04 15:28 | 49.17228 | 9.34793 | 14001 ft | 351 kts | 335° |
| 2026-05-04 15:28 | 49.19635 | 9.33990 | 14556 ft | 360 kts | 355° |
| 2026-05-04 15:28 | 49.24699 | 9.34601 | 15910 ft | 369 kts | 4° |
| 2026-05-04 15:29 | 49.27268 | 9.35026 | 16586 ft | 373 kts | 4° |
| 2026-05-04 15:30 | 49.37836 | 9.36848 | 19169 ft | 390 kts | 4° |
| 2026-05-04 15:30 | 49.46035 | 9.38237 | 20971 ft | 401 kts | 4° |
| 2026-05-04 15:31 | 49.51628 | 9.39169 | 22133 ft | 408 kts | 4° |
| 2026-05-04 15:31 | 49.54459 | 9.39648 | 22706 ft | 411 kts | 4° |
| 2026-05-04 15:32 | 49.63127 | 9.41130 | 24231 ft | 424 kts | 4° |
| 2026-05-04 15:32 | 49.69029 | 9.42136 | 25163 ft | 430 kts | 4° |
| 2026-05-04 15:33 | 49.75010 | 9.43165 | 26087 ft | 435 kts | 3° |
| 2026-05-04 15:34 | 49.84136 | 9.44728 | 27449 ft | 443 kts | 3° |
| 2026-05-04 15:34 | 49.87209 | 9.45259 | 27900 ft | 446 kts | 3° |
| 2026-05-04 15:34 | 49.93376 | 9.46330 | 28790 ft | 451 kts | 3° |
| 2026-05-04 15:35 | 49.99652 | 9.47417 | 29676 ft | 457 kts | 3° |
| 2026-05-04 15:35 | 50.02822 | 9.47967 | 30095 ft | 459 kts | 2° |
| 2026-05-04 15:35 | 50.06004 | 9.48519 | 30462 ft | 461 kts | 3° |
| 2026-05-04 15:36 | 50.12413 | 9.49609 | 31199 ft | 466 kts | 2° |
| 2026-05-04 15:36 | 50.15646 | 9.50147 | 31550 ft | 468 kts | 2° |
| 2026-05-04 15:36 | 50.18889 | 9.50683 | 31971 ft | 468 kts | 2° |
| 2026-05-04 15:37 | 50.22118 | 9.51219 | 32471 ft | 467 kts | 2° |
| 2026-05-04 15:37 | 50.25343 | 9.51759 | 32965 ft | 465 kts | 2° |
| 2026-05-04 15:37 | 50.28562 | 9.52306 | 33469 ft | 464 kts | 2° |
| 2026-05-04 15:37 | 50.31768 | 9.52849 | 33932 ft | 463 kts | 2° |
| 2026-05-04 15:38 | 50.34976 | 9.53379 | 34198 ft | 463 kts | 2° |
| 2026-05-04 15:38 | 50.37094 | 9.53731 | 34476 ft | 462 kts | 2° |
| 2026-05-04 15:38 | 50.40285 | 9.54268 | 34889 ft | 461 kts | 2° |
| 2026-05-04 15:38 | 50.43474 | 9.54810 | 35282 ft | 461 kts | 2° |
| 2026-05-04 15:39 | 50.46658 | 9.55351 | 35666 ft | 460 kts | 2° |
| 2026-05-04 15:39 | 50.49838 | 9.55894 | 36052 ft | 459 kts | 2° |
| 2026-05-04 15:39 | 50.56188 | 9.56980 | 36809 ft | 458 kts | 2° |
| 2026-05-04 15:40 | 50.59350 | 9.57517 | 37149 ft | 457 kts | 2° |
| 2026-05-04 15:40 | 50.62518 | 9.58050 | 37491 ft | 457 kts | 2° |
| 2026-05-04 15:40 | 50.65671 | 9.58588 | 37826 ft | 457 kts | 3° |
| 2026-05-04 15:40 | 50.68832 | 9.59133 | 38164 ft | 456 kts | 3° |
| 2026-05-04 15:41 | 50.71981 | 9.59674 | 38503 ft | 455 kts | 3° |
| 2026-05-04 15:41 | 50.75128 | 9.60221 | 38775 ft | 455 kts | 3° |
| 2026-05-04 15:41 | 50.78278 | 9.60806 | 38930 ft | 456 kts | 4° |
| 2026-05-04 15:42 | 50.84595 | 9.62063 | 38977 ft | 459 kts | 4° |
| 2026-05-04 15:42 | 50.90928 | 9.63332 | 38970 ft | 459 kts | 4° |
| 2026-05-04 15:43 | 50.97267 | 9.64574 | 38963 ft | 458 kts | 4° |
| 2026-05-04 15:43 | 51.03591 | 9.65797 | 38963 ft | 458 kts | 4° |
| 2026-05-04 15:44 | 51.09917 | 9.67034 | 38965 ft | 458 kts | 4° |
| 2026-05-04 15:44 | 51.16244 | 9.68277 | 38964 ft | 458 kts | 4° |
| 2026-05-04 15:45 | 51.22568 | 9.69513 | 38981 ft | 458 kts | 3° |
| 2026-05-04 15:45 | 51.28897 | 9.70556 | 38978 ft | 457 kts | 2° |